createdAt,value
2023-01-28T00:01:16.397Z,-2.00
2023-01-28T00:03:45.302Z,-2.10
2023-01-28T00:06:14.922Z,-2.10
2023-01-28T00:08:42.112Z,-2.10
2023-01-28T00:11:13.599Z,-2.00
2023-01-28T00:13:40.461Z,-2.00
2023-01-28T00:16:08.960Z,-2.00
2023-01-28T00:18:38.164Z,-2.00
2023-01-28T00:21:07.927Z,-2.10
2023-01-28T00:23:39.689Z,-2.00
2023-01-28T00:26:17.536Z,-2.00
2023-01-28T00:28:44.673Z,-2.00
2023-01-28T00:31:21.725Z,-2.10
2023-01-28T00:33:52.547Z,-2.10
2023-01-28T00:36:20.999Z,-2.10
2023-01-28T00:38:55.930Z,-2.10
2023-01-28T00:41:24.564Z,-2.10
2023-01-28T00:43:52.324Z,-2.10
2023-01-28T00:46:22.243Z,-2.10
2023-01-28T00:51:36.339Z,-2.00
2023-01-28T00:54:03.321Z,-2.00
2023-01-28T00:56:30.019Z,-2.00
2023-01-28T00:58:56.722Z,-2.10
2023-01-28T01:01:33.387Z,-2.00
2023-01-28T01:04:03.272Z,-2.10
2023-01-28T01:06:36.632Z,-2.10
2023-01-28T01:09:08.310Z,-2.10
2023-01-28T01:11:35.514Z,-2.10
2023-01-28T01:14:03.983Z,-2.00
2023-01-28T01:16:33.287Z,-2.00
2023-01-28T01:19:00.321Z,-1.90
2023-01-28T01:21:29.272Z,-2.00
2023-01-28T01:23:56.457Z,-2.00
2023-01-28T01:26:23.961Z,-2.00
2023-01-28T01:28:52.155Z,-2.00
2023-01-28T01:31:21.071Z,-2.00
2023-01-28T01:33:50.085Z,-2.00
2023-01-28T01:36:19.534Z,-2.00
2023-01-28T01:38:46.392Z,-2.00
2023-01-28T01:41:31.551Z,-2.00
2023-01-28T01:44:01.094Z,-2.00
2023-01-28T01:46:43.577Z,-2.00
2023-01-28T01:49:28.545Z,-2.00
2023-01-28T01:52:03.329Z,-2.00
2023-01-28T01:54:33.303Z,-2.00
2023-01-28T01:57:03.831Z,-2.00
2023-01-28T01:59:33.117Z,-2.00
2023-01-28T02:02:05.609Z,-2.00
2023-01-28T02:04:36.819Z,-2.10
2023-01-28T02:07:05.613Z,-2.10
2023-01-28T02:09:36.073Z,-2.10
2023-01-28T02:12:12.107Z,-2.20
2023-01-28T02:14:46.326Z,-2.20
2023-01-28T02:17:13.939Z,-2.10
2023-01-28T02:19:59.974Z,-2.20
2023-01-28T02:23:01.784Z,-2.20
2023-01-28T02:25:50.145Z,-2.20
2023-01-28T02:28:41.911Z,-2.20
2023-01-28T02:31:21.477Z,-2.20
2023-01-28T02:33:52.758Z,-2.30
2023-01-28T02:36:42.080Z,-2.30
2023-01-28T02:39:33.408Z,-2.30
2023-01-28T02:42:07.560Z,-2.30
2023-01-28T02:44:34.521Z,-2.30
2023-01-28T02:47:19.637Z,-2.30
2023-01-28T02:49:55.443Z,-2.30
2023-01-28T02:52:57.311Z,-2.40
2023-01-28T02:55:34.584Z,-2.40
2023-01-28T02:58:24.372Z,-2.30
2023-01-28T03:01:16.425Z,-2.30
2023-01-28T03:03:56.900Z,-2.30
2023-01-28T03:06:29.773Z,-2.30
2023-01-28T03:09:19.199Z,-2.30
2023-01-28T03:12:18.023Z,-2.30
2023-01-28T03:15:09.426Z,-2.20
2023-01-28T03:18:32.678Z,-2.20
2023-01-28T03:21:29.266Z,-2.30
2023-01-28T03:24:17.237Z,-2.40
2023-01-28T03:27:16.494Z,-2.40
2023-01-28T03:30:03.698Z,-2.40
2023-01-28T03:32:50.218Z,-2.40
2023-01-28T03:35:40.216Z,-2.40
2023-01-28T03:38:21.082Z,-2.40
2023-01-28T03:40:50.771Z,-2.40
2023-01-28T03:43:17.507Z,-2.40
2023-01-28T03:45:46.279Z,-2.40
2023-01-28T03:48:15.203Z,-2.40
2023-01-28T03:50:41.912Z,-2.40
2023-01-28T03:53:16.876Z,-2.40
2023-01-28T03:55:44.849Z,-2.40
2023-01-28T04:00:42.140Z,-2.30
2023-01-28T04:03:19.903Z,-2.40
2023-01-28T04:06:01.997Z,-2.40
2023-01-28T04:08:29.046Z,-2.30
2023-01-28T04:10:56.339Z,-2.30
2023-01-28T04:13:23.294Z,-2.40
2023-01-28T04:15:50.082Z,-2.40
2023-01-28T04:18:16.819Z,-2.30
2023-01-28T04:20:43.499Z,-2.40
2023-01-28T04:23:10.179Z,-2.40
2023-01-28T04:25:37.010Z,-2.40
2023-01-28T04:28:03.826Z,-2.30
2023-01-28T04:30:31.511Z,-2.40
2023-01-28T04:32:58.223Z,-2.30
2023-01-28T04:35:24.909Z,-2.30
2023-01-28T04:37:51.590Z,-2.30
2023-01-28T04:40:18.306Z,-2.30
2023-01-28T04:42:53.879Z,-2.30
2023-01-28T04:45:21.078Z,-2.30
2023-01-28T04:47:48.037Z,-2.30
2023-01-28T04:50:15.523Z,-2.30
2023-01-28T04:52:42.588Z,-2.30
2023-01-28T04:55:10.177Z,-2.30
2023-01-28T04:57:36.961Z,-2.30
2023-01-28T05:00:05.587Z,-2.30
2023-01-28T05:02:32.383Z,-2.40
2023-01-28T05:04:59.253Z,-2.30
2023-01-28T05:07:25.923Z,-2.30
2023-01-28T05:09:52.579Z,-2.30
2023-01-28T05:12:20.856Z,-2.30
2023-01-28T05:14:47.531Z,-2.30
2023-01-28T05:17:14.236Z,-2.30
2023-01-28T05:19:40.939Z,-2.30
2023-01-28T05:22:07.614Z,-2.30
2023-01-28T05:24:34.264Z,-2.30
2023-01-28T05:27:00.950Z,-2.30
2023-01-28T05:29:27.685Z,-2.30
2023-01-28T05:31:54.444Z,-2.30
2023-01-28T05:34:21.130Z,-2.30
2023-01-28T05:36:47.833Z,-2.30
2023-01-28T05:39:14.572Z,-2.30
2023-01-28T05:41:41.277Z,-2.30
2023-01-28T05:44:07.983Z,-2.30
2023-01-28T05:46:34.877Z,-2.20
2023-01-28T05:49:01.595Z,-2.20
2023-01-28T05:51:28.254Z,-2.20
2023-01-28T05:53:54.920Z,-2.30
2023-01-28T05:56:21.598Z,-2.20
2023-01-28T05:58:48.264Z,-2.30
2023-01-28T06:01:14.976Z,-2.30
2023-01-28T06:03:41.665Z,-2.30
2023-01-28T06:06:08.328Z,-2.30
2023-01-28T06:08:35.087Z,-2.20
2023-01-28T06:11:01.739Z,-2.30
2023-01-28T06:13:28.447Z,-2.30
2023-01-28T06:15:55.146Z,-2.30
2023-01-28T06:18:21.850Z,-2.30
2023-01-28T06:20:50.076Z,-2.30
2023-01-28T06:23:17.011Z,-2.40
2023-01-28T06:25:43.800Z,-2.30
2023-01-28T06:28:10.492Z,-2.40
2023-01-28T06:30:37.242Z,-2.40
2023-01-28T06:33:03.964Z,-2.40
2023-01-28T06:35:30.735Z,-2.40
2023-01-28T06:37:57.637Z,-2.30
2023-01-28T06:40:25.104Z,-2.40
2023-01-28T06:42:51.784Z,-2.40
2023-01-28T06:45:19.058Z,-2.40
2023-01-28T06:47:45.766Z,-2.40
2023-01-28T06:50:12.546Z,-2.40
2023-01-28T06:55:19.635Z,-2.40
2023-01-28T06:57:46.443Z,-2.30
2023-01-28T07:00:15.747Z,-2.30
2023-01-28T07:02:42.812Z,-2.40
2023-01-28T07:05:09.963Z,-2.40
2023-01-28T07:07:37.205Z,-2.40
2023-01-28T07:10:04.204Z,-2.40
2023-01-28T07:12:30.900Z,-2.50
2023-01-28T07:14:57.587Z,-2.40
2023-01-28T07:28:36.088Z,-2.40
2023-01-28T07:31:02.843Z,-2.40
2023-01-28T07:36:16.281Z,-2.40
2023-01-28T07:38:43.060Z,-2.40
2023-01-28T07:49:01.651Z,-2.30
2023-01-28T07:54:10.384Z,-2.30
2023-01-28T08:34:41.462Z,-1.80
2023-01-28T08:50:33.471Z,-1.90
2023-01-28T08:55:35.462Z,-1.80
2023-01-28T09:13:44.379Z,-1.60
2023-01-28T09:16:11.470Z,-1.60
2023-01-28T09:21:16.175Z,-1.50
2023-01-28T09:23:43.690Z,-1.40
2023-01-28T09:28:36.392Z,-1.40
2023-01-28T09:36:11.779Z,-1.30
2023-01-28T09:44:02.253Z,-1.20
2023-01-28T09:48:55.370Z,-1.00
2023-01-28T10:07:29.620Z,-0.90
2023-01-28T10:20:51.843Z,-1.00
2023-01-28T10:23:46.435Z,-1.00
2023-01-28T10:26:25.419Z,-1.00
2023-01-28T10:29:11.360Z,-0.80
2023-01-28T10:31:44.317Z,-0.80
2023-01-28T10:44:45.923Z,-0.90
2023-01-28T10:47:13.540Z,-0.70
2023-01-28T10:49:49.467Z,-0.60
2023-01-28T10:52:16.763Z,-0.50
2023-01-28T10:54:43.475Z,-0.30
2023-01-28T10:57:16.393Z,-0.60
2023-01-28T10:59:43.522Z,-0.70
2023-01-28T11:02:32.487Z,-0.50
2023-01-28T11:10:26.787Z,-0.30
2023-01-28T11:18:28.387Z,-0.40
2023-01-28T11:21:01.296Z,-0.50
2023-01-28T11:23:33.313Z,-0.50
2023-01-28T11:26:07.007Z,-0.40
2023-01-28T11:39:46.443Z,-0.10
2023-01-28T11:51:43.291Z,-0.10
2023-01-28T11:56:58.704Z,-0.10
2023-01-28T12:07:52.519Z,-0.30
2023-01-28T12:10:37.723Z,-0.50
2023-01-28T12:13:25.710Z,-0.50
2023-01-28T12:16:21.333Z,-0.30
2023-01-28T12:18:59.851Z,-0.30
2023-01-28T12:21:35.021Z,-0.20
2023-01-28T12:24:30.436Z,-0.20
2023-01-28T12:27:34.307Z,-0.20
2023-01-28T12:30:28.387Z,0.00
2023-01-28T12:33:22.308Z,-0.10
2023-01-28T12:36:07.820Z,-0.20
2023-01-28T12:39:13.155Z,-0.10
2023-01-28T12:41:47.703Z,-0.10
2023-01-28T12:44:27.435Z,-0.20
2023-01-28T12:46:59.590Z,0.00
2023-01-28T12:49:46.212Z,-0.10
2023-01-28T12:52:18.840Z,-0.10
2023-01-28T12:54:53.652Z,0.10
2023-01-28T12:57:26.631Z,0.10
2023-01-28T13:00:18.175Z,0.20
2023-01-28T13:02:58.187Z,0.20
2023-01-28T13:05:33.144Z,0.00
2023-01-28T13:08:21.789Z,-0.10
2023-01-28T13:10:48.972Z,-0.30
2023-01-28T13:13:35.847Z,-0.30
2023-01-28T13:16:04.221Z,-0.50
2023-01-28T13:18:39.791Z,-0.50
2023-01-28T13:21:11.984Z,-0.60
2023-01-28T13:23:42.951Z,-0.60
2023-01-28T13:26:51.371Z,-0.50
2023-01-28T13:29:30.127Z,-0.50
2023-01-28T13:31:59.497Z,-0.60
2023-01-28T13:34:33.655Z,-0.80
2023-01-28T13:37:15.795Z,-0.80
2023-01-28T13:39:48.912Z,-0.80
2023-01-28T13:42:28.606Z,-0.90
2023-01-28T13:44:56.289Z,-0.60
2023-01-28T13:47:35.626Z,-0.60
2023-01-28T13:50:07.391Z,-0.60
2023-01-28T13:52:59.558Z,-0.70
2023-01-28T13:55:44.899Z,-0.80
2023-01-28T13:58:30.765Z,-0.90
2023-01-28T14:01:06.500Z,-0.80
2023-01-28T14:03:56.875Z,-0.80
2023-01-28T14:06:48.626Z,-0.90
2023-01-28T14:09:37.058Z,-0.90
2023-01-28T14:12:09.898Z,-1.00
2023-01-28T14:15:04.610Z,-1.00
2023-01-28T14:17:56.004Z,-0.90
2023-01-28T14:20:31.402Z,-0.80
2023-01-28T14:23:14.259Z,-0.90
2023-01-28T14:25:40.883Z,-0.90
2023-01-28T14:28:15.168Z,-0.80
2023-01-28T14:30:47.644Z,-0.90
2023-01-28T14:33:14.799Z,-0.90
2023-01-28T14:35:47.499Z,-0.80
2023-01-28T14:38:18.762Z,-0.90
2023-01-28T14:40:45.787Z,-0.90
2023-01-28T14:43:20.504Z,-0.90
2023-01-28T14:46:08.746Z,-0.90
2023-01-28T14:48:49.587Z,-0.90
2023-01-28T14:51:43.647Z,-0.90
2023-01-28T14:54:31.116Z,-0.80
2023-01-28T14:57:26.906Z,-0.80
2023-01-28T14:59:58.151Z,-0.80
2023-01-28T15:02:26.791Z,-0.70
2023-01-28T15:04:54.401Z,-0.80
2023-01-28T15:07:26.915Z,-0.80
2023-01-28T15:10:14.588Z,-0.80
2023-01-28T15:12:47.811Z,-0.90
2023-01-28T15:15:36.541Z,-0.90
2023-01-28T15:18:30.423Z,-0.80
2023-01-28T15:20:58.620Z,-0.90
2023-01-28T15:23:29.151Z,-0.90
2023-01-28T15:25:56.986Z,-0.90
2023-01-28T15:28:36.840Z,-0.90
2023-01-28T15:31:04.383Z,-1.00
2023-01-28T15:33:31.349Z,-1.10
2023-01-28T15:35:59.185Z,-1.00
2023-01-28T15:38:28.195Z,-1.10
2023-01-28T15:41:02.908Z,-1.10
2023-01-28T15:43:36.063Z,-1.00
2023-01-28T15:46:03.967Z,-1.00
2023-01-28T15:48:34.118Z,-0.90
2023-01-28T15:51:04.096Z,-1.00
2023-01-28T15:53:58.420Z,-1.00
2023-01-28T15:56:27.836Z,-1.00
2023-01-28T15:58:56.116Z,-1.00
2023-01-28T16:01:23.867Z,-1.10
2023-01-28T16:04:05.422Z,-1.00
2023-01-28T16:06:36.241Z,-0.90
2023-01-28T16:09:06.231Z,-0.90
2023-01-28T16:11:44.584Z,-0.90
2023-01-28T16:14:29.247Z,-1.00
2023-01-28T16:16:57.086Z,-1.00
2023-01-28T16:19:48.777Z,-1.10
2023-01-28T16:22:43.549Z,-1.10
2023-01-28T16:25:41.507Z,-1.10
2023-01-28T16:28:20.250Z,-1.10
2023-01-28T16:30:46.998Z,-1.20
2023-01-28T16:33:21.984Z,-1.10
2023-01-28T16:36:05.482Z,-1.20
2023-01-28T16:38:34.882Z,-1.10
2023-01-28T16:41:01.664Z,-1.10
2023-01-28T16:43:28.333Z,-1.10
2023-01-28T16:45:55.003Z,-1.10
2023-01-28T16:48:22.434Z,-1.20
2023-01-28T16:50:49.320Z,-1.10
2023-01-28T16:53:24.942Z,-1.20
2023-01-28T16:55:52.971Z,-1.10
2023-01-28T16:58:25.500Z,-1.10
2023-01-28T17:00:53.084Z,-1.10
2023-01-28T17:03:20.007Z,-1.10
2023-01-28T17:05:47.052Z,-1.10
2023-01-28T17:08:13.752Z,-1.10
2023-01-28T17:10:40.581Z,-1.10
2023-01-28T17:13:07.307Z,-1.10
2023-01-28T17:15:35.947Z,-1.10
2023-01-28T17:18:02.638Z,-1.20
2023-01-28T17:20:29.666Z,-1.20
2023-01-28T17:22:57.560Z,-1.20
2023-01-28T17:25:24.265Z,-1.20
2023-01-28T17:27:50.956Z,-1.20
2023-01-28T17:30:20.659Z,-1.20
2023-01-28T17:32:47.431Z,-1.20
2023-01-28T17:35:15.759Z,-1.20
2023-01-28T17:37:42.769Z,-1.20
2023-01-28T17:40:12.401Z,-1.20
2023-01-28T17:42:39.234Z,-1.10
2023-01-28T17:45:06.615Z,-1.20
2023-01-28T17:47:33.315Z,-1.20
2023-01-28T17:50:00.126Z,-1.20
2023-01-28T17:52:26.854Z,-1.20
2023-01-28T17:54:53.558Z,-1.20
2023-01-28T17:57:20.436Z,-1.20
2023-01-28T17:59:47.257Z,-1.20
2023-01-28T18:02:14.811Z,-1.20
2023-01-28T18:04:43.359Z,-1.10
2023-01-28T18:07:11.087Z,-1.10
2023-01-28T18:09:39.400Z,-1.20
2023-01-28T18:12:07.899Z,-1.10
2023-01-28T18:14:35.128Z,-1.00
2023-01-28T18:17:01.974Z,-1.00
2023-01-28T18:19:28.860Z,-1.10
2023-01-28T18:21:55.935Z,-1.20
2023-01-28T18:24:24.354Z,-1.10
2023-01-28T18:26:55.183Z,-1.30
2023-01-28T18:29:23.971Z,-1.30
2023-01-28T18:31:55.149Z,-1.20
2023-01-28T18:34:27.260Z,-1.20
2023-01-28T18:36:54.432Z,-1.20
2023-01-28T18:39:21.510Z,-1.20
2023-01-28T18:41:48.196Z,-1.20
2023-01-28T18:44:15.553Z,-1.10
2023-01-28T18:46:42.567Z,-1.20
2023-01-28T18:49:09.333Z,-1.10
2023-01-28T18:51:36.484Z,-1.10
2023-01-28T18:54:05.358Z,-1.20
2023-01-28T18:56:32.883Z,-1.20
2023-01-28T18:59:01.788Z,-1.20
2023-01-28T19:01:30.020Z,-1.20
2023-01-28T19:03:58.527Z,-1.20
2023-01-28T19:06:27.679Z,-1.10
2023-01-28T19:09:00.001Z,-1.10
2023-01-28T19:11:28.830Z,-1.10
2023-01-28T19:13:55.591Z,-1.20
2023-01-28T19:16:23.099Z,-1.10
2023-01-28T19:18:58.426Z,-1.10
2023-01-28T19:21:26.234Z,-1.00
2023-01-28T19:23:58.731Z,-0.90
2023-01-28T19:26:26.812Z,-0.90
2023-01-28T19:28:53.723Z,-0.80
2023-01-28T19:31:21.592Z,-0.60
2023-01-28T19:33:49.299Z,-0.60
2023-01-28T19:36:16.228Z,-0.50
2023-01-28T19:38:42.972Z,-0.40
2023-01-28T19:41:09.970Z,-0.40
2023-01-28T19:43:36.708Z,-0.40
2023-01-28T19:46:05.914Z,-0.30
2023-01-28T19:48:33.796Z,-0.30
2023-01-28T19:51:07.584Z,-0.30
2023-01-28T19:53:38.799Z,-0.30
2023-01-28T19:56:11.808Z,-0.30
2023-01-28T19:58:41.122Z,-0.30
2023-01-28T20:01:16.214Z,-0.40
2023-01-28T20:03:43.466Z,-0.50
2023-01-28T20:06:15.980Z,-0.70
2023-01-28T20:08:43.575Z,-0.90
2023-01-28T20:11:15.584Z,-1.10
2023-01-28T20:13:45.492Z,-1.00
2023-01-28T20:16:23.162Z,-0.90
2023-01-28T20:18:51.593Z,-0.70
2023-01-28T20:21:19.454Z,-0.50
2023-01-28T20:23:51.460Z,-0.40
2023-01-28T20:26:21.152Z,-0.40
2023-01-28T20:28:48.452Z,-0.50
2023-01-28T20:31:15.926Z,-0.60
2023-01-28T20:33:42.986Z,-0.70
2023-01-28T20:36:11.938Z,-0.80
2023-01-28T20:38:40.603Z,-0.90
2023-01-28T20:41:09.695Z,-1.00
2023-01-28T20:43:37.852Z,-1.00
2023-01-28T20:46:32.340Z,-1.00
2023-01-28T20:49:02.991Z,-1.00
2023-01-28T20:51:31.537Z,-0.90
2023-01-28T20:54:00.492Z,-0.80
2023-01-28T20:56:29.911Z,-0.70
2023-01-28T20:58:59.769Z,-0.60
2023-01-28T21:01:29.058Z,-0.60
2023-01-28T21:03:56.467Z,-0.60
2023-01-28T21:06:24.601Z,-0.60
2023-01-28T21:08:53.002Z,-0.60
2023-01-28T21:11:21.356Z,-0.50
2023-01-28T21:13:48.091Z,-0.50
2023-01-28T21:16:15.355Z,-0.50
2023-01-28T21:18:42.267Z,-0.50
2023-01-28T21:21:19.651Z,-0.50
2023-01-28T21:23:46.507Z,-0.70
2023-01-28T21:26:15.391Z,-0.80
2023-01-28T21:28:43.545Z,-1.00
2023-01-28T21:31:20.164Z,-1.10
2023-01-28T21:33:55.028Z,-1.00
2023-01-28T21:36:22.561Z,-0.80
2023-01-28T21:38:53.994Z,-0.80
2023-01-28T21:41:20.902Z,-0.90
2023-01-28T21:43:53.396Z,-0.90
2023-01-28T21:46:38.285Z,-0.80
2023-01-28T21:49:05.538Z,-0.80
2023-01-28T21:51:39.439Z,-0.70
2023-01-28T21:54:17.472Z,-0.70
2023-01-28T21:56:46.013Z,-0.70
2023-01-28T21:59:29.370Z,-0.70
2023-01-28T22:02:06.893Z,-0.60
2023-01-28T22:04:36.455Z,-0.60
2023-01-28T22:07:05.347Z,-0.60
2023-01-28T22:09:33.667Z,-0.60
2023-01-28T22:12:03.337Z,-0.60
2023-01-28T22:14:30.160Z,-0.50
2023-01-28T22:16:57.166Z,-0.60
2023-01-28T22:19:23.943Z,-0.70
2023-01-28T22:21:50.860Z,-0.80
2023-01-28T22:24:19.688Z,-0.80
2023-01-28T22:26:47.258Z,-0.90
2023-01-28T22:29:16.374Z,-0.90
2023-01-28T22:31:45.914Z,-1.10
2023-01-28T22:34:12.893Z,-1.20
2023-01-28T22:36:39.703Z,-1.20
2023-01-28T22:39:08.489Z,-1.10
2023-01-28T22:41:35.195Z,-1.10
2023-01-28T22:44:03.733Z,-1.20
2023-01-28T22:46:33.174Z,-1.20
2023-01-28T22:49:00.603Z,-1.20
2023-01-28T22:51:30.678Z,-1.20
2023-01-28T22:53:57.807Z,-1.10
2023-01-28T22:58:53.675Z,-1.10
2023-01-28T23:01:20.485Z,-1.10
2023-01-28T23:03:49.414Z,-1.00
2023-01-28T23:06:18.060Z,-0.90
2023-01-28T23:08:45.634Z,-0.80
2023-01-28T23:11:15.307Z,-0.70
2023-01-28T23:14:01.835Z,-0.80
2023-01-28T23:16:48.797Z,-1.00
2023-01-28T23:19:35.062Z,-1.10
2023-01-28T23:22:20.510Z,-1.20
2023-01-28T23:24:47.251Z,-1.30
2023-01-28T23:27:13.907Z,-1.30
2023-01-28T23:29:40.588Z,-1.30
2023-01-28T23:32:09.811Z,-1.30
2023-01-28T23:34:44.322Z,-1.30
2023-01-28T23:37:15.487Z,-1.30
2023-01-28T23:39:43.034Z,-1.20
2023-01-28T23:42:14.071Z,-1.20
2023-01-28T23:44:41.071Z,-1.30
2023-01-28T23:47:08.275Z,-1.30
2023-01-28T23:49:34.997Z,-1.30
2023-01-28T23:52:02.578Z,-1.20
2023-01-28T23:54:29.335Z,-1.10
2023-01-28T23:56:56.075Z,-1.00
2023-01-28T23:59:22.739Z,-1.00
